Terminal Aerodrome Forecast
Issued by NWS

Home | Current Version | Previous Version | Graphics & Text | Print | Product List | Glossary On
Versions: 1 2 3 4 5 6 7 8 9 10 11 12 13
000
FTUS43 KBIS 310500
TAFJMS
TAF
KJMS 310533Z 3106/0106 30003KT P6SM SKC
     FM310900 32003KT P6SM VCFG SKC
     FM311300 32004KT P6SM SCT050
     FM311800 35006KT P6SM SCT060
     FM010200 06004KT P6SM BKN060=

USA.gov is the U.S. government's official web portal to all federal, state and local government web resources and services.